Lebanon Municipal Airport Lebanon US
ICAO: KLEB
IATA: LEB
Category: Medium
Scheduled Services: Yes

Elevation: 603 ft
TransAlt. 18000 ft.

Airport Communications:
BOSTON APP/DEP:134.7
ASOS:118.65
ATIS:118.65
CTAF:125.95
GND:121.6
BANGOR RDO:122.2
TWR:125.95
UNICOM:122.95

KLEB Zoom In..

Runways:

(A) RW 07 length 5496 ft width 100 ft
---- / hdg 75

(B) RW 18 length 5200 ft width 100 ft
ILS 111.90 / hdg 184

(C) RW 25 length 5496 ft width 100 ft
---- / hdg 255

(D) RW 36 length 5200 ft width 100 ft
---- / hdg 4

Location; KLEB
Day. 07 / Time. 04.53 Zulu
* Altimeter: 29.89
* Temperature: 02° c. 35.6°f.
* Wind from: 040° Speed 04 kn.
Dewpoint: -03° c.
Visibility: 10 Statute Miles.
Clouds: Clear (automated report).

KLEB 070453Z AUTO 04004KT 10SM CLR 02/M03 A2989 RMK AO2 SLP124 T00171033 401501011


Wind From 040°
Speed 04 kn.

 
 
jpsmedia worldairports.se 2020   terms of use